Time;durP1;ratioP1;P1;durP2;ratioP2;P2;SDS_P1;SDS_P2;PMS_P1;PMS_P2;Temp;Humidity;BMP_temperature;BMP_pressure;BME280_temperature;BME280_humidity;BME280_pressure;Samples;Min_cycle;Max_cycle;Signal;HPM_P1;HPM_P2
2022/01/26 00:06:36;;;;;;;101.40;45.17;;;3.50;99.90;;;;;;5136722;27;20423;-90
2022/01/26 00:09:06;;;;;;;101.83;46.50;;;3.40;99.90;;;;;;5135925;27;20440;-89
2022/01/26 00:11:34;;;;;;;104.50;45.43;;;3.40;99.90;;;;;;5136870;27;20447;-87
2022/01/26 00:14:03;;;;;;;105.33;46.03;;;3.50;99.90;;;;;;5136679;27;20451;-86
2022/01/26 00:16:38;;;;;;;97.23;43.03;;;3.50;99.90;;;;;;5136278;27;20491;-86
2022/01/26 00:19:06;;;;;;;102.83;45.67;;;3.50;99.90;;;;;;5136304;27;20475;-88
2022/01/26 00:21:40;;;;;;;104.53;45.30;;;3.30;99.90;;;;;;5136586;27;20467;-86
2022/01/26 00:24:37;;;;;;;105.10;46.03;;;3.40;99.90;;;;;;5136221;27;20966;-86
2022/01/26 00:29:59;;;;;;;110.43;47.77;;;3.40;99.90;;;;;;5117083;27;20912;-87
2022/01/26 00:40:52;;;;;;;99.73;45.30;;;3.50;99.90;;;;;;5116117;28;20424;-86
2022/01/26 00:43:23;;;;;;;104.60;46.37;;;3.60;99.90;;;;;;5116007;28;20464;-85
2022/01/26 00:45:56;;;;;;;114.93;65.85;;;3.80;99.90;;;;;;5115229;28;20431;-86
2022/01/26 00:48:24;;;;;;;107.60;52.13;;;4.20;99.90;;;;;;5116137;28;20542;-87
2022/01/26 00:50:53;;;;;;;103.57;48.53;;;4.40;99.90;;;;;;5116351;27;20436;-84
2022/01/26 00:53:26;;;;;;;106.47;49.37;;;4.40;99.90;;;;;;5115455;27;20437;-83
2022/01/26 00:55:53;;;;;;;102.67;46.93;;;4.40;99.90;;;;;;5115335;28;20219;-85
2022/01/26 00:58:20;;;;;;;102.57;48.63;;;4.60;99.90;;;;;;5115106;28;20204;-82
2022/01/26 01:00:47;;;;;;;106.60;49.53;;;4.70;99.90;;;;;;5115006;27;20212;-82
2022/01/26 01:03:14;;;;;;;100.47;46.60;;;4.50;99.90;;;;;;5115018;28;20207;-84
2022/01/26 01:05:52;;;;;;;108.60;49.47;;;4.60;99.90;;;;;;5115222;27;20200;-83
2022/01/26 01:08:26;;;;;;;106.10;48.60;;;4.60;99.90;;;;;;5115002;27;20200;-83
2022/01/26 01:10:59;;;;;;;107.00;49.33;;;4.60;99.90;;;;;;5114699;28;21350;-83
2022/01/26 01:13:33;;;;;;;105.13;48.80;;;4.70;99.90;;;;;;5115003;27;20550;-82
2022/01/26 01:16:02;;;;;;;112.07;57.88;;;4.70;99.90;;;;;;5114062;28;20501;-83
2022/01/26 01:18:37;;;;;;;106.07;50.00;;;4.70;99.90;;;;;;5113479;28;20204;-81
2022/01/26 01:26:53;;;;;;;100.43;46.60;;;4.10;99.90;;;;;;5115258;28;20451;-83
2022/01/26 01:29:25;;;;;;;96.37;46.40;;;4.00;99.90;;;;;;5115064;28;20808;-83
2022/01/26 01:31:57;;;;;;;97.07;46.50;;;4.00;99.90;;;;;;5115266;28;20794;-85
2022/01/26 01:34:34;;;;;;;92.47;45.40;;;4.00;99.90;;;;;;5115385;28;20468;-86
2022/01/26 01:37:06;;;;;;;100.60;46.80;;;4.00;99.90;;;;;;5116110;27;20309;-83
2022/01/26 01:39:40;;;;;;;99.43;47.00;;;4.10;99.90;;;;;;5115055;28;20452;-85
2022/01/26 01:42:13;;;;;;;104.47;48.63;;;4.20;99.90;;;;;;5115987;27;20197;-84
2022/01/26 01:44:40;;;;;;;104.27;47.00;;;4.30;99.90;;;;;;5115354;27;20451;-83
2022/01/26 01:47:08;;;;;;;104.33;48.53;;;4.20;99.90;;;;;;5115122;28;20432;-85
2022/01/26 01:49:35;;;;;;;102.77;47.47;;;4.20;99.90;;;;;;5114927;27;20227;-85
2022/01/26 01:52:06;;;;;;;105.67;48.13;;;4.30;99.90;;;;;;5114820;28;20196;-82
2022/01/26 01:54:33;;;;;;;109.27;47.90;;;4.30;99.90;;;;;;5114866;28;20438;-82
2022/01/26 01:57:01;;;;;;;111.97;48.17;;;4.30;99.90;;;;;;5114773;27;20574;-85
2022/01/26 01:59:31;;;;;;;103.77;47.40;;;4.30;99.90;;;;;;5114793;27;20441;-83
2022/01/26 02:01:59;;;;;;;108.43;45.87;;;4.20;99.90;;;;;;5114666;28;20437;-80
2022/01/26 02:04:28;;;;;;;116.73;45.80;;;4.10;99.90;;;;;;5114695;27;20456;-82
2022/01/26 02:06:57;;;;;;;104.50;43.77;;;4.00;99.90;;;;;;5115096;27;20456;-83
2022/01/26 02:09:25;;;;;;;108.20;44.83;;;3.90;99.90;;;;;;5114114;28;20432;-88
2022/01/26 02:11:56;;;;;;;109.63;44.63;;;3.90;99.90;;;;;;5114050;28;20421;-80
2022/01/26 02:14:29;;;;;;;100.00;40.20;;;4.00;99.90;;;;;;5114065;27;20455;-84
2022/01/26 02:17:07;;;;;;;89.53;37.57;;;3.90;99.90;;;;;;5113884;27;20998;-86
2022/01/26 02:50:23;;;;;;;85.87;33.40;;;3.40;99.90;;;;;;5117704;28;20458;-87
2022/01/26 02:55:41;;;;;;;77.90;35.17;;;3.20;99.90;;;;;;5118871;27;20475;-85
2022/01/26 02:58:37;;;;;;;85.90;34.87;;;3.10;99.90;;;;;;5117513;28;20432;-85
2022/01/26 03:01:17;;;;;;;78.80;31.03;;;3.00;99.90;;;;;;5117367;28;20539;-85
2022/01/26 03:03:55;;;;;;;79.03;33.20;;;2.90;99.90;;;;;;5117254;28;20853;-85
2022/01/26 03:06:32;;;;;;;78.57;32.67;;;2.90;99.90;;;;;;5117547;28;20441;-87
2022/01/26 03:09:08;;;;;;;80.37;31.97;;;2.80;99.90;;;;;;5117041;28;20440;-85
2022/01/26 03:11:39;;;;;;;84.77;34.20;;;2.80;99.90;;;;;;5116855;28;20904;-88
2022/01/26 03:14:15;;;;;;;87.03;32.20;;;2.90;99.90;;;;;;5117339;27;20482;-84
2022/01/26 03:16:51;;;;;;;76.63;33.50;;;2.80;99.90;;;;;;5116857;28;20475;-85
2022/01/26 03:19:24;;;;;;;79.33;32.53;;;2.80;99.90;;;;;;5117349;28;20433;-85
2022/01/26 03:22:17;;;;;;;84.00;35.30;;;2.90;99.90;;;;;;5117271;28;20467;-86
2022/01/26 03:30:32;;;;;;;84.40;33.37;;;2.70;99.90;;;;;;5128679;27;20809;-85
2022/01/26 03:33:12;;;;;;;80.27;33.57;;;2.70;99.90;;;;;;5137409;27;20441;-85
2022/01/26 03:35:47;;;;;;;79.00;33.90;;;2.70;99.90;;;;;;5137193;27;20471;-85
2022/01/26 03:38:21;;;;;;;87.23;34.87;;;2.80;99.90;;;;;;5136261;27;20439;-81
2022/01/26 03:40:57;;;;;;;84.03;35.90;;;2.80;99.90;;;;;;5137140;27;20566;-85
2022/01/26 03:43:31;;;;;;;87.13;35.77;;;3.00;99.90;;;;;;5136045;27;20455;-85
2022/01/26 03:46:00;;;;;;;86.27;35.37;;;3.00;99.90;;;;;;5137201;27;20432;-87
2022/01/26 03:48:27;;;;;;;90.50;36.57;;;3.00;99.90;;;;;;5133837;27;20467;-85
2022/01/26 03:50:54;;;;;;;88.10;37.03;;;2.80;99.90;;;;;;5116135;27;20448;-87
2022/01/26 03:53:22;;;;;;;91.60;39.53;;;2.80;99.90;;;;;;5115742;28;20444;-86
2022/01/26 03:55:50;;;;;;;86.93;36.73;;;2.80;99.90;;;;;;5116025;27;20480;-87
2022/01/26 03:58:16;;;;;;;101.32;45.88;;;3.20;99.90;;;;;;5116034;27;20443;-85
2022/01/26 04:00:47;;;;;;;87.77;38.60;;;3.10;99.90;;;;;;5116600;28;20647;-87
2022/01/26 04:03:15;;;;;;;93.77;38.77;;;3.10;99.90;;;;;;5117032;27;20448;-86
2022/01/26 04:05:43;;;;;;;87.50;37.60;;;3.20;99.90;;;;;;5116338;28;20533;-86
2022/01/26 04:08:19;;;;;;;89.73;38.83;;;3.10;99.90;;;;;;5116438;28;20490;-85
2022/01/26 04:10:58;;;;;;;92.13;39.77;;;3.20;99.90;;;;;;5116500;27;20452;-86
2022/01/26 04:13:25;;;;;;;90.60;38.73;;;3.10;99.90;;;;;;5116705;28;20476;-86
2022/01/26 04:15:56;;;;;;;88.10;38.77;;;3.10;99.90;;;;;;5116861;28;20477;-85
2022/01/26 04:18:33;;;;;;;91.07;38.47;;;3.10;99.90;;;;;;5116918;28;20463;-84
2022/01/26 04:21:09;;;;;;;87.20;39.30;;;3.10;99.90;;;;;;5116849;27;20456;-87
2022/01/26 04:23:45;;;;;;;92.37;39.97;;;2.90;99.90;;;;;;5116400;27;20755;-85
2022/01/26 04:26:18;;;;;;;94.17;39.53;;;3.00;99.90;;;;;;5116544;28;20460;-85
2022/01/26 04:28:51;;;;;;;93.33;40.13;;;3.00;99.90;;;;;;5117110;28;20480;-85
2022/01/26 04:31:21;;;;;;;95.43;40.37;;;3.10;99.90;;;;;;5131340;27;20857;-85
2022/01/26 04:33:55;;;;;;;88.87;39.93;;;3.10;99.90;;;;;;5142923;27;20440;-85
2022/01/26 04:36:27;;;;;;;91.10;39.17;;;3.10;99.90;;;;;;5141526;27;20701;-85
2022/01/26 04:38:58;;;;;;;93.67;40.87;;;3.10;99.90;;;;;;5141672;27;20553;-85
2022/01/26 04:41:31;;;;;;;86.90;39.47;;;3.10;99.90;;;;;;5142041;27;20428;-87
2022/01/26 04:44:05;;;;;;;92.47;39.77;;;3.10;99.90;;;;;;5140343;27;20511;-83
2022/01/26 04:46:34;;;;;;;95.37;41.00;;;3.10;99.90;;;;;;5135882;27;20453;-83
2022/01/26 04:49:02;;;;;;;93.80;40.37;;;3.10;99.90;;;;;;5136105;27;20442;-83
2022/01/26 04:51:34;;;;;;;90.40;41.37;;;3.00;99.90;;;;;;5136734;27;20448;-82
2022/01/26 04:54:03;;;;;;;93.80;40.83;;;3.10;99.90;;;;;;5135669;27;20439;-82
2022/01/26 04:56:31;;;;;;;91.13;41.83;;;3.10;99.90;;;;;;5135718;27;20491;-80
2022/01/26 04:58:59;;;;;;;94.53;42.17;;;3.20;99.90;;;;;;5135477;27;20470;-81
2022/01/26 05:01:26;;;;;;;97.80;43.07;;;3.20;99.90;;;;;;5135753;27;20424;-80
2022/01/26 05:03:56;;;;;;;109.67;42.63;;;3.10;99.90;;;;;;5135384;27;20817;-84
2022/01/26 05:06:23;;;;;;;104.03;41.67;;;3.10;99.90;;;;;;5135958;27;20438;-85
2022/01/26 05:08:50;;;;;;;97.70;41.47;;;3.10;99.90;;;;;;5135112;27;20451;-85
2022/01/26 05:11:31;;;;;;;93.33;41.93;;;3.10;99.90;;;;;;5135902;27;20439;-84
2022/01/26 05:13:59;;;;;;;88.27;40.03;;;3.00;99.90;;;;;;5135014;27;20804;-86
2022/01/26 05:16:29;;;;;;;91.17;40.20;;;3.10;99.90;;;;;;5135466;27;20475;-85
2022/01/26 05:19:00;;;;;;;95.07;40.73;;;3.20;99.90;;;;;;5135257;27;20455;-85
2022/01/26 05:21:29;;;;;;;99.33;41.93;;;3.10;99.90;;;;;;5134785;27;20523;-82
2022/01/26 05:23:56;;;;;;;94.87;41.00;;;3.20;99.90;;;;;;5135360;27;20432;-82
2022/01/26 05:26:23;;;;;;;114.17;44.87;;;3.20;99.90;;;;;;5134985;27;20463;-83
2022/01/26 05:28:53;;;;;;;95.67;41.60;;;3.00;99.90;;;;;;5135290;27;20455;-85
2022/01/26 05:31:20;;;;;;;103.80;43.13;;;3.10;99.90;;;;;;5134883;27;20454;-83
2022/01/26 05:33:50;;;;;;;98.77;42.67;;;3.10;99.90;;;;;;5134698;27;20433;-83
2022/01/26 05:36:21;;;;;;;97.10;41.53;;;3.10;99.90;;;;;;5134726;27;20592;-84
2022/01/26 05:38:48;;;;;;;95.83;40.07;;;3.00;99.90;;;;;;5134756;27;20430;-83
2022/01/26 05:41:15;;;;;;;98.90;42.57;;;3.10;99.90;;;;;;5134620;27;20448;-82
2022/01/26 05:43:44;;;;;;;94.60;41.37;;;3.20;99.90;;;;;;5134508;27;20459;-82
2022/01/26 05:46:17;;;;;;;97.27;42.53;;;3.30;99.90;;;;;;5133501;27;20444;-84
2022/01/26 05:48:46;;;;;;;94.73;40.97;;;3.50;99.90;;;;;;5135031;27;20443;-81
2022/01/26 05:51:15;;;;;;;92.33;41.23;;;3.50;99.90;;;;;;5134624;27;20452;-83
2022/01/26 05:53:50;;;;;;;92.43;39.87;;;3.50;99.90;;;;;;5134830;27;20432;-85
2022/01/26 05:56:18;;;;;;;95.77;41.33;;;3.40;99.90;;;;;;5134556;27;20471;-83
2022/01/26 05:58:51;;;;;;;94.87;40.73;;;3.40;99.90;;;;;;5134251;27;20461;-83
2022/01/26 06:01:19;;;;;;;96.67;41.83;;;3.40;99.90;;;;;;5125302;27;20542;-82
2022/01/26 06:03:46;;;;;;;96.77;41.50;;;3.50;99.90;;;;;;5134604;27;20907;-84
2022/01/26 06:06:17;;;;;;;90.03;41.17;;;3.50;99.90;;;;;;5133066;27;20517;-83
2022/01/26 06:08:45;;;;;;;95.23;40.43;;;3.50;99.90;;;;;;5134695;27;20812;-85
2022/01/26 06:11:19;;;;;;;87.53;40.63;;;3.40;99.90;;;;;;5134577;27;20772;-86
2022/01/26 06:13:48;;;;;;;108.67;58.07;;;3.40;99.90;;;;;;5131558;27;20487;-85
2022/01/26 06:16:17;;;;;;;96.83;45.20;;;3.30;99.90;;;;;;5122006;28;20219;-84
2022/01/26 06:18:46;;;;;;;95.60;42.40;;;3.30;99.90;;;;;;5114250;28;20831;-85
2022/01/26 06:21:13;;;;;;;96.60;43.73;;;3.40;99.90;;;;;;5114269;28;20440;-87
2022/01/26 06:23:40;;;;;;;90.00;42.50;;;3.40;99.90;;;;;;5114302;28;20765;-86
2022/01/26 06:26:09;;;;;;;97.07;41.77;;;3.50;99.90;;;;;;5114344;28;20473;-86
2022/01/26 06:28:37;;;;;;;97.23;42.90;;;3.40;99.90;;;;;;5114598;28;20445;-84
2022/01/26 06:31:10;;;;;;;94.40;40.47;;;3.40;99.90;;;;;;5117365;28;20441;-84
2022/01/26 06:33:40;;;;;;;100.50;41.53;;;3.40;99.90;;;;;;5115493;28;20476;-91
2022/01/26 06:36:13;;;;;;;90.37;41.17;;;3.30;99.90;;;;;;5115295;28;20441;-82
2022/01/26 06:38:41;;;;;;;90.37;40.57;;;3.30;99.90;;;;;;5113758;28;20424;-83
2022/01/26 06:41:22;;;;;;;94.10;41.60;;;3.30;99.90;;;;;;5117480;28;20449;-83
2022/01/26 06:43:58;;;;;;;99.10;41.93;;;3.30;99.90;;;;;;5113976;28;20836;-84
2022/01/26 06:46:33;;;;;;;104.25;51.97;;;3.30;99.90;;;;;;5122644;27;20427;-91
2022/01/26 06:49:28;;;;;;;96.47;43.77;;;3.30;99.90;;;;;;5141122;27;20192;-89
2022/01/26 06:51:55;;;;;;;100.13;43.47;;;3.20;99.90;;;;;;5137684;27;20485;-89
2022/01/26 06:54:29;;;;;;;91.77;43.33;;;3.20;99.90;;;;;;5137610;27;20448;-90
2022/01/26 06:57:02;;;;;;;94.13;42.83;;;3.30;99.90;;;;;;5136839;27;20468;-92
2022/01/26 06:59:36;;;;;;;92.77;42.27;;;3.20;99.90;;;;;;5136785;27;20451;-92
2022/01/26 07:02:06;;;;;;;88.83;41.70;;;3.00;99.90;;;;;;5137286;27;20439;-91
2022/01/26 07:04:35;;;;;;;95.43;44.13;;;2.90;99.90;;;;;;5140407;27;20649;-89
2022/01/26 07:07:05;;;;;;;92.53;41.67;;;2.90;99.90;;;;;;5138099;27;20476;-91
2022/01/26 07:09:33;;;;;;;95.23;42.67;;;2.90;99.90;;;;;;5138867;27;20420;-92
2022/01/26 07:12:06;;;;;;;94.23;41.37;;;3.00;99.90;;;;;;5137002;27;20443;-91
2022/01/26 07:23:12;;;;;;;93.50;41.90;;;3.10;99.90;;;;;;5106895;28;20497;-92
2022/01/26 07:25:41;;;;;;;96.10;42.50;;;3.10;99.90;;;;;;5142919;27;20531;-89
2022/01/26 07:28:07;;;;;;;94.33;43.93;;;3.10;99.90;;;;;;5137386;27;20448;-85
2022/01/26 07:30:36;;;;;;;98.77;43.57;;;3.10;99.90;;;;;;5136799;27;20446;-83
2022/01/26 07:33:03;;;;;;;93.20;43.63;;;3.10;99.90;;;;;;5137074;27;20448;-84
2022/01/26 07:35:30;;;;;;;94.63;43.10;;;3.20;99.90;;;;;;5135687;27;20447;-85
2022/01/26 07:37:59;;;;;;;96.53;43.83;;;3.20;99.90;;;;;;5137130;27;20482;-85
2022/01/26 07:40:28;;;;;;;97.47;42.57;;;3.10;99.90;;;;;;5136784;27;20464;-83
2022/01/26 07:42:56;;;;;;;91.87;43.07;;;3.00;99.90;;;;;;5136882;27;20463;-85
2022/01/26 07:45:23;;;;;;;100.47;43.90;;;3.00;99.90;;;;;;5137454;27;20551;-84
2022/01/26 07:47:55;;;;;;;101.37;42.83;;;3.00;99.90;;;;;;5136765;27;20451;-85
2022/01/26 07:50:28;;;;;;;97.80;42.40;;;3.00;99.90;;;;;;5136424;27;20872;-88
2022/01/26 07:52:55;;;;;;;90.87;42.20;;;3.00;99.90;;;;;;5136902;27;20432;-85
2022/01/26 07:55:24;;;;;;;106.47;55.75;;;3.00;99.90;;;;;;5135754;27;21023;-83
2022/01/26 07:57:56;;;;;;;98.10;47.90;;;3.00;99.90;;;;;;5136823;27;20596;-85
2022/01/26 08:00:23;;;;;;;88.97;42.67;;;3.10;99.90;;;;;;5136736;27;20440;-82
2022/01/26 08:02:50;;;;;;;93.57;42.37;;;3.20;99.90;;;;;;5131872;27;20432;-82
2022/01/26 08:05:21;;;;;;;101.80;45.67;;;3.30;99.90;;;;;;5127626;27;20421;-83
2022/01/26 08:07:54;;;;;;;91.63;41.97;;;3.40;99.90;;;;;;5137177;27;20444;-90
2022/01/26 08:10:29;;;;;;;92.90;44.03;;;3.40;99.90;;;;;;5137836;27;20918;-90
2022/01/26 08:12:59;;;;;;;96.07;42.57;;;3.40;99.90;;;;;;5137486;27;20443;-91
2022/01/26 08:15:29;;;;;;;102.97;43.97;;;3.40;99.90;;;;;;5136136;27;20440;-90
2022/01/26 08:18:05;;;;;;;91.60;45.10;;;3.40;99.90;;;;;;5137714;27;20476;-91
2022/01/26 08:20:41;;;;;;;95.33;44.37;;;3.30;99.90;;;;;;5138763;27;20443;-87
2022/01/26 08:23:13;;;;;;;97.77;43.27;;;3.30;99.90;;;;;;5140159;27;20498;-85
2022/01/26 08:25:46;;;;;;;90.77;43.80;;;3.30;99.90;;;;;;5138175;27;20470;-89
2022/01/26 08:28:24;;;;;;;89.53;43.87;;;3.30;99.90;;;;;;5137248;27;20448;-91
2022/01/26 08:30:55;;;;;;;91.33;44.63;;;3.30;99.90;;;;;;5134817;27;20435;-88
2022/01/26 08:33:22;;;;;;;91.37;43.50;;;3.40;99.90;;;;;;5136633;27;20455;-90
2022/01/26 08:35:52;;;;;;;87.40;43.17;;;3.40;99.90;;;;;;5127202;27;20433;-90
2022/01/26 08:38:42;;;;;;;88.10;43.90;;;3.50;99.90;;;;;;5116128;27;20488;-91
2022/01/26 08:41:12;;;;;;;91.50;43.30;;;3.50;99.90;;;;;;5131077;27;20452;-92
2022/01/26 08:43:40;;;;;;;85.40;40.10;;;3.50;99.90;;;;;;5136761;27;20444;-88
2022/01/26 08:46:10;;;;;;;83.60;41.57;;;3.50;99.90;;;;;;5136871;27;20459;-89
2022/01/26 08:48:45;;;;;;;84.03;42.80;;;3.50;99.90;;;;;;5136546;27;20448;-90
2022/01/26 08:51:18;;;;;;;86.90;41.07;;;3.50;99.90;;;;;;5136783;27;20450;-90
2022/01/26 08:53:51;;;;;;;85.87;43.70;;;3.50;99.90;;;;;;5136387;27;20483;-91
2022/01/26 08:56:24;;;;;;;79.97;42.53;;;3.50;99.90;;;;;;5136633;27;20460;-90
2022/01/26 08:59:12;;;;;;;84.83;40.80;;;3.50;99.90;;;;;;5136541;27;20476;-90
2022/01/26 09:01:42;;;;;;;77.00;39.07;;;3.50;99.90;;;;;;5136577;27;20447;-91
2022/01/26 09:04:11;;;;;;;66.60;37.40;;;3.40;99.90;;;;;;5136396;27;20927;-89
2022/01/26 09:06:52;;;;;;;72.87;37.83;;;3.40;99.90;;;;;;5136607;27;20451;-91
2022/01/26 09:09:21;;;;;;;69.30;36.50;;;3.40;99.90;;;;;;5136860;27;20504;-89
2022/01/26 09:11:56;;;;;;;67.70;35.07;;;3.40;99.90;;;;;;5136395;27;20460;-90
2022/01/26 09:14:28;;;;;;;62.17;33.67;;;3.40;99.90;;;;;;5136215;27;20534;-90
2022/01/26 09:17:02;;;;;;;64.87;34.57;;;3.40;99.90;;;;;;5137760;27;20459;-91
2022/01/26 09:19:30;;;;;;;59.90;34.37;;;3.50;99.90;;;;;;5154050;22;21018;-92
2022/01/26 09:22:01;;;;;;;60.00;32.50;;;3.60;99.90;;;;;;5035004;28;20449;-89
2022/01/26 09:24:30;;;;;;;73.20;35.97;;;3.60;99.90;;;;;;5035923;28;20455;-90
2022/01/26 09:27:04;;;;;;;70.00;34.60;;;3.80;99.90;;;;;;5034419;28;20464;-90
2022/01/26 09:29:37;;;;;;;69.47;35.37;;;3.70;99.90;;;;;;5034628;28;20458;-89
2022/01/26 09:32:11;;;;;;;60.30;33.13;;;3.70;99.90;;;;;;5034665;28;20455;-90
2022/01/26 09:34:45;;;;;;;64.60;34.50;;;3.70;99.90;;;;;;5034338;28;20440;-88
2022/01/26 09:37:17;;;;;;;58.07;32.60;;;3.70;99.90;;;;;;5034549;28;20467;-91
2022/01/26 09:39:48;;;;;;;62.90;44.88;;;3.70;99.90;;;;;;5033135;28;20773;-90
2022/01/26 09:42:21;;;;;;;62.20;36.60;;;3.80;99.90;;;;;;5034338;28;20212;-89
2022/01/26 09:44:55;;;;;;;62.07;34.93;;;3.80;99.90;;;;;;5034295;28;20456;-91
2022/01/26 09:47:24;;;;;;;64.27;34.50;;;3.70;99.90;;;;;;5034578;28;20464;-90
2022/01/26 09:49:57;;;;;;;63.57;34.17;;;3.70;99.90;;;;;;5034591;28;20532;-91
2022/01/26 09:52:34;;;;;;;60.53;35.43;;;3.70;99.90;;;;;;5034373;28;20455;-89
2022/01/26 09:55:03;;;;;;;67.97;35.43;;;3.70;99.90;;;;;;5034315;28;20456;-91
2022/01/26 09:57:36;;;;;;;60.90;34.80;;;3.60;99.90;;;;;;5033967;28;21005;-89
2022/01/26 10:00:10;;;;;;;66.17;36.03;;;3.60;99.90;;;;;;5034662;28;20475;-91
2022/01/26 10:02:43;;;;;;;61.50;34.93;;;3.70;99.90;;;;;;5034184;28;20507;-88
2022/01/26 10:05:16;;;;;;;64.17;36.20;;;3.80;99.90;;;;;;5034712;28;20449;-88
2022/01/26 10:08:06;;;;;;;63.87;36.70;;;3.90;99.90;;;;;;5035032;28;20963;-90
2022/01/26 10:17:06;;;;;;;66.77;39.00;;;4.10;99.90;;;;;;5034284;28;20195;-89
2022/01/26 10:19:24;;;;;;;71.33;38.20;;;4.10;99.90;;;;;;5034183;28;20567;-88
2022/01/26 10:21:54;;;;;;;66.53;38.63;;;4.40;99.90;;;;;;5034133;28;20436;-90
2022/01/26 10:24:28;;;;;;;80.53;39.67;;;4.30;99.90;;;;;;5033911;28;20563;-88
2022/01/26 10:27:02;;;;;;;74.60;40.97;;;4.20;99.90;;;;;;5033317;28;20521;-87
2022/01/26 10:29:36;;;;;;;80.17;41.33;;;4.20;99.90;;;;;;5034336;28;20453;-87
2022/01/26 10:32:12;;;;;;;75.80;40.90;;;4.20;99.90;;;;;;5033875;28;20935;-89
2022/01/26 10:34:42;;;;;;;72.83;40.50;;;4.10;99.90;;;;;;5034108;28;20421;-88
2022/01/26 10:37:14;;;;;;;66.80;37.27;;;4.10;99.90;;;;;;5033647;28;20903;-88
2022/01/26 10:39:51;;;;;;;70.60;39.53;;;4.00;99.90;;;;;;5033396;28;20437;-89
2022/01/26 10:42:24;;;;;;;74.77;41.13;;;3.90;99.90;;;;;;5033383;28;20448;-87
2022/01/26 10:45:16;;;;;;;72.47;38.80;;;3.90;99.90;;;;;;5033336;28;20443;-87
2022/01/26 10:47:47;;;;;;;75.33;41.07;;;3.90;99.90;;;;;;5033605;28;20795;-88
2022/01/26 10:50:43;;;;;;;72.80;39.60;;;3.90;99.90;;;;;;5033660;28;20478;-88
2022/01/26 10:53:18;;;;;;;65.97;37.70;;;3.90;99.90;;;;;;5034676;28;20467;-87
2022/01/26 10:55:51;;;;;;;70.93;38.80;;;3.90;99.90;;;;;;5036934;28;20456;-88
2022/01/26 10:58:21;;;;;;;68.53;38.37;;;3.90;99.90;;;;;;5036950;28;20985;-87
2022/01/26 11:00:54;;;;;;;65.33;37.93;;;3.90;99.90;;;;;;5037132;28;20539;-87
2022/01/26 11:03:24;;;;;;;72.37;39.77;;;4.00;99.90;;;;;;5037207;28;20799;-88
2022/01/26 11:05:52;;;;;;;76.03;40.67;;;4.00;99.90;;;;;;5037017;28;20455;-87
2022/01/26 11:08:26;;;;;;;68.00;37.37;;;4.10;99.90;;;;;;5037233;28;20436;-88
2022/01/26 11:10:55;;;;;;;66.43;39.00;;;4.00;99.90;;;;;;5036142;28;20452;-87
2022/01/26 11:13:28;;;;;;;68.57;39.77;;;3.90;99.90;;;;;;5033452;28;20429;-90
2022/01/26 11:16:07;;;;;;;70.07;38.40;;;4.00;99.90;;;;;;5035575;28;20842;-88
2022/01/26 11:18:45;;;;;;;68.87;39.67;;;3.80;99.90;;;;;;5035826;28;20520;-85
2022/01/26 11:21:16;;;;;;;69.37;38.67;;;3.90;99.90;;;;;;5036645;28;20436;-89
2022/01/26 11:23:43;;;;;;;65.40;35.47;;;3.90;99.90;;;;;;5036488;28;20480;-89
2022/01/26 11:26:25;;;;;;;67.17;36.63;;;3.90;99.90;;;;;;5035619;28;20547;-90
2022/01/26 11:28:52;;;;;;;64.03;36.50;;;3.90;99.90;;;;;;5036906;28;20555;-89
2022/01/26 11:31:23;;;;;;;74.47;40.60;;;3.80;99.90;;;;;;5033675;28;20459;-88
2022/01/26 11:33:51;;;;;;;70.67;39.17;;;3.80;99.90;;;;;;5033677;28;20502;-90
2022/01/26 11:36:22;;;;;;;70.30;37.33;;;4.00;99.90;;;;;;5036260;28;20452;-87
2022/01/26 11:42:13;;;;;;;70.80;38.13;;;3.90;99.90;;;;;;5035927;28;20853;-89
2022/01/26 11:42:32;;;;;;;69.23;38.10;;;3.90;99.90;;;;;;5036186;28;20543;-88
2022/01/26 11:45:13;;;;;;;70.37;37.53;;;4.00;99.90;;;;;;5036160;28;20445;-89
2022/01/26 11:47:42;;;;;;;66.33;36.20;;;4.00;99.90;;;;;;5036536;28;20451;-88
2022/01/26 11:50:14;;;;;;;66.93;37.57;;;4.00;99.90;;;;;;5036414;28;20440;-89
2022/01/26 11:53:00;;;;;;;65.67;36.57;;;3.90;99.90;;;;;;5036177;28;20436;-88
2022/01/26 11:55:32;;;;;;;71.20;37.27;;;3.90;99.90;;;;;;5035658;28;20460;-87
2022/01/26 11:58:32;;;;;;;69.70;40.45;;;3.90;99.90;;;;;;5033721;28;20521;-88
2022/01/26 12:01:13;;;;;;;67.53;37.67;;;4.00;99.90;;;;;;5034757;28;20610;-87
2022/01/26 12:03:47;;;;;;;70.03;38.80;;;4.10;99.90;;;;;;5036302;28;20519;-86
2022/01/26 12:06:27;;;;;;;70.60;38.67;;;4.20;99.90;;;;;;5035197;28;20940;-85
2022/01/26 12:08:55;;;;;;;72.97;37.33;;;4.20;99.90;;;;;;5035927;28;20482;-87
2022/01/26 12:11:23;;;;;;;73.60;38.80;;;4.40;99.90;;;;;;5035255;28;20564;-87
2022/01/26 12:13:59;;;;;;;68.23;36.53;;;4.50;99.90;;;;;;5035620;28;20523;-87
2022/01/26 12:16:34;;;;;;;73.77;39.47;;;4.40;99.90;;;;;;5034340;28;20951;-88
2022/01/26 12:19:21;;;;;;;68.13;37.87;;;4.50;99.90;;;;;;5036267;28;20983;-87
2022/01/26 12:33:25;;;;;;;70.30;37.10;;;4.40;99.90;;;;;;5016204;28;20432;-85
2022/01/26 12:35:56;;;;;;;74.43;39.67;;;4.40;99.90;;;;;;5030446;28;20452;-85
2022/01/26 12:38:39;;;;;;;88.00;42.43;;;4.50;99.90;;;;;;5045283;28;20539;-89
2022/01/26 12:41:19;;;;;;;83.80;41.37;;;4.50;99.90;;;;;;5048948;28;20510;-87
2022/01/26 12:43:48;;;;;;;76.60;38.37;;;4.50;99.90;;;;;;5052830;28;20428;-89
2022/01/26 12:46:32;;;;;;;79.87;38.90;;;4.30;99.90;;;;;;5046980;28;20441;-87
2022/01/26 12:49:08;;;;;;;84.73;41.10;;;4.20;99.90;;;;;;5036643;28;20448;-88
2022/01/26 12:51:42;;;;;;;80.73;41.17;;;4.30;99.90;;;;;;5036342;28;20452;-91
2022/01/26 12:54:19;;;;;;;75.83;38.27;;;4.30;99.90;;;;;;5035888;28;20944;-90
2022/01/26 12:57:18;;;;;;;79.83;38.67;;;4.30;99.90;;;;;;5035379;28;20946;-88
2022/01/26 12:59:59;;;;;;;83.33;41.23;;;4.30;99.90;;;;;;5034672;28;20484;-88
2022/01/26 13:02:51;;;;;;;84.87;41.50;;;4.30;99.90;;;;;;5035497;28;20927;-89
2022/01/26 13:05:26;;;;;;;93.17;42.43;;;4.30;99.90;;;;;;5034911;28;20448;-86
2022/01/26 13:08:06;;;;;;;76.87;39.80;;;4.20;99.90;;;;;;5035331;28;20448;-89
2022/01/26 13:10:36;;;;;;;85.73;40.37;;;4.30;99.90;;;;;;5034812;28;20452;-88
2022/01/26 13:13:16;;;;;;;86.33;41.97;;;4.30;99.90;;;;;;5033373;28;20440;-89
2022/01/26 13:16:00;;;;;;;81.43;41.77;;;4.30;99.90;;;;;;5034176;28;20509;-86
2022/01/26 13:18:48;;;;;;;82.40;40.50;;;4.20;99.90;;;;;;5032006;28;20522;-89
2022/01/26 13:21:41;;;;;;;79.07;39.07;;;4.10;99.90;;;;;;5033919;28;21018;-90
2022/01/26 13:24:27;;;;;;;79.50;38.10;;;4.10;99.90;;;;;;5034453;28;20959;-87
2022/01/26 13:27:11;;;;;;;77.97;38.53;;;4.00;99.90;;;;;;5033807;28;20472;-89
2022/01/26 13:29:51;;;;;;;82.47;38.37;;;4.10;99.90;;;;;;5031679;28;20441;-88
2022/01/26 13:35:17;;;;;;;87.00;41.03;;;4.20;99.90;;;;;;5033516;28;20474;-89
2022/01/26 13:38:02;;;;;;;78.40;39.47;;;4.20;99.90;;;;;;5034042;28;20494;-88
2022/01/26 13:40:44;;;;;;;79.90;41.23;;;4.30;99.90;;;;;;5032870;28;20812;-89
2022/01/26 13:52:03;;;;;;;70.63;38.57;;;4.10;99.90;;;;;;5034027;28;20997;-87
2022/01/26 13:54:52;;;;;;;77.63;41.10;;;4.20;99.90;;;;;;5034043;28;20457;-83
2022/01/26 13:57:45;;;;;;;77.63;38.73;;;4.20;99.90;;;;;;5034382;28;20449;-88
2022/01/26 14:00:17;;;;;;;71.87;38.53;;;4.20;99.90;;;;;;5034119;28;20498;-86
2022/01/26 14:02:59;;;;;;;71.93;39.47;;;4.40;99.90;;;;;;5033203;28;20456;-89
2022/01/26 14:05:26;;;;;;;66.63;38.40;;;4.50;99.90;;;;;;5041293;28;20845;-88
2022/01/26 14:07:56;;;;;;;68.67;36.43;;;4.60;99.90;;;;;;5041747;28;20456;-87
2022/01/26 14:10:29;;;;;;;63.60;35.27;;;4.50;99.90;;;;;;5041264;28;20447;-88
2022/01/26 14:13:00;;;;;;;64.97;36.80;;;4.30;99.90;;;;;;5036768;28;20463;-88
2022/01/26 14:15:39;;;;;;;66.53;37.20;;;4.20;99.90;;;;;;5037285;28;20523;-88
2022/01/26 14:18:35;;;;;;;68.37;37.17;;;4.10;99.90;;;;;;5036660;28;20444;-88
2022/01/26 14:21:07;;;;;;;66.50;37.27;;;4.30;99.90;;;;;;5033772;28;20457;-89
2022/01/26 14:23:58;;;;;;;67.87;36.97;;;4.10;99.90;;;;;;5034432;28;20837;-89
2022/01/26 14:26:30;;;;;;;65.10;37.17;;;4.20;99.90;;;;;;5034131;28;20472;-90
2022/01/26 14:29:02;;;;;;;63.00;34.83;;;4.20;99.90;;;;;;5037436;28;20463;-89
2022/01/26 14:31:38;;;;;;;66.70;35.40;;;4.40;99.90;;;;;;5038131;28;20467;-88
2022/01/26 14:40:31;;;;;;;68.07;35.83;;;4.50;99.90;;;;;;5028698;28;20483;-87
2022/01/26 14:51:15;;;;;;;65.53;35.97;;;4.20;99.90;;;;;;5037839;28;20428;-89
2022/01/26 15:30:24;;;;;;;53.37;30.40;;;4.20;99.90;;;;;;5014780;28;20437;-88
2022/01/26 15:33:22;;;;;;;57.67;30.47;;;4.20;99.90;;;;;;5035038;28;20448;-90
2022/01/26 15:44:26;;;;;;;59.83;32.10;;;4.10;99.90;;;;;;5034452;28;20441;-89
2022/01/26 15:50:14;;;;;;;59.97;31.87;;;4.00;99.90;;;;;;5036429;28;20438;-88